Time;durP1;ratioP1;P1;durP2;ratioP2;P2;SDS_P1;SDS_P2;PMS_P1;PMS_P2;Temp;Humidity;BMP_temperature;BMP_pressure;BME280_temperature;BME280_humidity;BME280_pressure;Samples;Min_cycle;Max_cycle;Signal;HPM_P1;HPM_P2
2021/01/05 00:00:15;;;;;;;10.93;4.95;;;6.70;85.10;;;;;;5018032;28;20410;-52
2021/01/05 00:02:40;;;;;;;;;;;6.70;85.10;;;;;;5032941;28;20048;-52
2021/01/05 00:05:08;;;;;;;9.70;4.47;;;6.70;85.10;;;;;;5018582;28;19913;-52
2021/01/05 00:07:33;;;;;;;9.48;4.57;;;6.70;85.10;;;;;;5013077;28;20081;-52
2021/01/05 00:09:59;;;;;;;13.23;5.38;;;6.70;85.10;;;;;;5016780;28;20394;-52
2021/01/05 00:12:25;;;;;;;10.77;4.75;;;6.70;85.10;;;;;;5032717;28;20029;-52
2021/01/05 00:14:50;;;;;;;12.13;4.97;;;6.70;85.10;;;;;;5032950;28;20037;-52
2021/01/05 00:17:19;;;;;;;13.35;6.10;;;6.70;85.10;;;;;;5032880;28;20502;-52
2021/01/05 00:19:45;;;;;;;11.85;5.38;;;6.70;85.00;;;;;;5015154;28;20120;-52
2021/01/05 00:22:12;;;;;;;10.02;4.90;;;6.70;85.10;;;;;;5012861;28;20037;-52
2021/01/05 00:24:38;;;;;;;11.15;5.50;;;6.70;85.10;;;;;;5013111;28;20105;-52
2021/01/05 00:27:04;;;;;;;10.85;4.95;;;6.70;85.00;;;;;;5012955;28;20110;-52
2021/01/05 00:29:30;;;;;;;9.10;5.05;;;6.70;85.00;;;;;;5015974;28;20374;-52
2021/01/05 00:32:07;;;;;;;12.75;5.50;;;6.80;85.10;;;;;;5017094;28;20527;-52
2021/01/05 00:34:33;;;;;;;10.35;4.03;;;6.80;85.00;;;;;;5012844;28;20068;-52
2021/01/05 00:37:00;;;;;;;10.65;4.70;;;6.70;85.00;;;;;;5012948;28;20029;-52
2021/01/05 00:39:25;;;;;;;13.52;5.28;;;6.80;85.00;;;;;;5012944;28;20466;-52
2021/01/05 00:41:51;;;;;;;11.70;4.93;;;6.70;85.00;;;;;;5033058;28;20029;-52
2021/01/05 00:44:16;;;;;;;11.23;4.95;;;6.80;85.00;;;;;;5030372;28;20447;-52
2021/01/05 00:46:42;;;;;;;9.00;4.22;;;6.70;85.00;;;;;;5016236;28;20048;-52
2021/01/05 00:49:08;;;;;;;11.52;4.30;;;6.80;85.00;;;;;;5016229;28;20061;-52
2021/01/05 00:51:34;;;;;;;10.25;5.18;;;6.80;85.10;;;;;;5030729;28;20405;-52
2021/01/05 00:53:59;;;;;;;11.70;4.18;;;6.80;85.10;;;;;;5036053;28;20026;-52
2021/01/05 00:56:25;;;;;;;13.57;5.10;;;6.80;85.10;;;;;;5036023;28;20045;-52
2021/01/05 00:58:51;;;;;;;16.08;5.82;;;6.80;85.10;;;;;;5035964;28;20454;-52
2021/01/05 01:01:19;;;;;;;14.70;6.70;;;6.70;85.10;;;;;;5022669;28;20105;-52
2021/01/05 01:03:45;;;;;;;12.90;5.63;;;6.70;85.10;;;;;;5016151;28;20041;-52
2021/01/05 01:06:11;;;;;;;13.50;5.32;;;6.70;85.00;;;;;;5016039;28;20375;-52
2021/01/05 01:08:36;;;;;;;12.65;5.47;;;6.70;85.00;;;;;;5016156;28;20030;-52
2021/01/05 01:11:02;;;;;;;13.80;6.13;;;6.80;85.10;;;;;;5027943;28;20040;-52
2021/01/05 01:13:28;;;;;;;13.00;5.57;;;6.80;85.10;;;;;;5035058;28;20405;-52
2021/01/05 01:15:53;;;;;;;14.50;6.22;;;6.80;85.10;;;;;;5035443;28;20033;-52
2021/01/05 01:18:19;;;;;;;12.35;5.25;;;6.80;85.10;;;;;;5035502;28;20025;-52
2021/01/05 01:20:44;;;;;;;12.02;5.10;;;6.70;85.10;;;;;;5027932;28;20076;-52
2021/01/05 01:23:10;;;;;;;10.40;6.00;;;6.80;85.20;;;;;;5015355;28;20034;-52
2021/01/05 01:25:35;;;;;;;11.15;5.75;;;6.80;85.00;;;;;;5015676;28;20026;-52
2021/01/05 01:28:01;;;;;;;12.65;5.93;;;6.80;85.10;;;;;;5015625;28;20462;-52
2021/01/05 01:30:27;;;;;;;19.30;7.05;;;6.80;85.20;;;;;;5019895;28;20013;-52
2021/01/05 01:32:52;;;;;;;14.10;6.18;;;6.80;85.10;;;;;;5035222;28;20448;-52
2021/01/05 01:35:18;;;;;;;13.48;6.43;;;6.80;85.10;;;;;;5034998;28;20394;-52
2021/01/05 01:37:44;;;;;;;12.35;5.80;;;6.80;85.10;;;;;;5035121;28;20033;-52
2021/01/05 01:40:11;;;;;;;11.60;5.68;;;6.70;85.10;;;;;;5033837;28;20033;-52
2021/01/05 01:42:37;;;;;;;12.57;6.00;;;6.80;85.20;;;;;;5034750;28;20033;-52
2021/01/05 01:45:05;;;;;;;13.88;7.18;;;6.70;85.10;;;;;;5034864;28;20022;-52
2021/01/05 01:47:35;;;;;;;15.30;6.30;;;6.70;85.20;;;;;;5034626;28;20032;-52
2021/01/05 01:50:07;;;;;;;13.30;5.72;;;6.70;85.20;;;;;;5033941;28;20083;-52
2021/01/05 01:52:57;;;;;;;14.40;5.97;;;6.70;85.20;;;;;;5013852;28;20471;-52
2021/01/05 01:55:50;;;;;;;15.43;5.85;;;6.80;85.20;;;;;;5014731;28;20029;-52
2021/01/05 01:58:40;;;;;;;15.98;6.60;;;6.80;85.20;;;;;;5015110;28;20026;-52
2021/01/05 02:01:09;;;;;;;16.77;6.45;;;6.70;85.20;;;;;;5044711;28;20053;-52
2021/01/05 02:03:43;;;;;;;14.18;6.05;;;6.80;85.20;;;;;;5047368;28;20098;-52
2021/01/05 02:06:27;;;;;;;15.15;6.60;;;6.80;85.20;;;;;;5050452;28;20411;-52
2021/01/05 02:09:08;;;;;;;15.93;6.32;;;6.80;85.20;;;;;;5034507;28;20068;-52
2021/01/05 02:11:51;;;;;;;;;;;6.80;85.30;;;;;;5022628;28;20340;-52
2021/01/05 02:14:45;;;;;;;11.57;6.35;;;6.80;85.20;;;;;;5014635;28;20346;-52
2021/01/05 02:17:38;;;;;;;15.77;6.53;;;6.80;85.20;;;;;;5015066;28;20087;-52
2021/01/05 02:20:14;;;;;;;17.52;6.85;;;6.80;85.30;;;;;;5014998;28;20022;-53
2021/01/05 02:23:01;;;;;;;14.73;6.70;;;6.80;85.30;;;;;;5032263;28;20048;-52
2021/01/05 02:26:06;;;;;;;14.35;6.88;;;6.80;85.30;;;;;;5034027;28;20045;-52
2021/01/05 02:28:44;;;;;;;19.10;7.35;;;6.80;85.30;;;;;;5034787;28;20029;-52
2021/01/05 02:31:24;;;;;;;18.40;7.15;;;6.80;85.30;;;;;;5024815;28;20395;-52
2021/01/05 02:34:31;;;;;;;16.25;7.80;;;6.80;85.30;;;;;;5015025;28;20109;-52
2021/01/05 02:37:06;;;;;;;13.85;6.13;;;6.70;85.30;;;;;;5034010;28;20175;-52
2021/01/05 02:40:09;;;;;;;13.25;6.57;;;6.80;85.30;;;;;;5034343;28;20171;-52
2021/01/05 02:42:37;;;;;;;16.23;7.68;;;6.80;85.30;;;;;;5024839;28;20375;-52
2021/01/05 02:45:21;;;;;;;14.60;6.50;;;6.70;85.20;;;;;;5033717;28;20029;-52
2021/01/05 02:47:58;;;;;;;17.17;6.97;;;6.80;86.10;;;;;;5033986;28;20112;-52
2021/01/05 02:50:47;;;;;;;19.20;6.72;;;6.70;85.30;;;;;;5031186;28;20033;-52
2021/01/05 02:53:51;;;;;;;17.73;7.60;;;6.70;85.30;;;;;;5013606;28;20125;-52
2021/01/05 02:56:38;;;;;;;18.98;6.82;;;6.80;85.30;;;;;;5014079;28;20030;-52
2021/01/05 02:59:29;;;;;;;17.33;6.80;;;6.70;85.30;;;;;;5013979;28;20501;-52
2021/01/05 03:02:13;;;;;;;15.35;5.95;;;6.70;85.30;;;;;;5027736;28;20043;-52
2021/01/05 03:04:39;;;;;;;18.17;6.50;;;6.70;85.40;;;;;;5032956;28;20037;-52
2021/01/05 03:07:15;;;;;;;16.02;7.70;;;6.80;85.40;;;;;;5025315;28;20030;-52
2021/01/05 03:09:46;;;;;;;14.43;6.78;;;6.70;85.50;;;;;;5015469;28;20052;-52
2021/01/05 03:12:12;;;;;;;15.30;6.25;;;6.80;85.40;;;;;;5032651;28;20454;-52
2021/01/05 03:15:15;;;;;;;15.10;6.95;;;6.70;85.30;;;;;;5033524;28;20031;-52
2021/01/05 03:17:49;;;;;;;20.58;7.55;;;6.80;85.40;;;;;;5033422;28;20451;-52
2021/01/05 03:20:25;;;;;;;16.75;6.82;;;6.80;85.40;;;;;;5033501;28;20435;-52
2021/01/05 03:22:55;;;;;;;16.77;7.22;;;6.80;85.40;;;;;;5013656;28;20141;-52
2021/01/05 03:25:23;;;;;;;12.18;6.75;;;6.70;85.40;;;;;;5013910;28;20038;-52
2021/01/05 03:27:53;;;;;;;18.58;7.60;;;6.80;85.40;;;;;;5013558;28;20095;-52
2021/01/05 03:30:30;;;;;;;16.20;6.82;;;6.70;85.30;;;;;;5031148;28;20040;-52
2021/01/05 03:32:55;;;;;;;14.18;6.88;;;6.80;85.40;;;;;;5027819;28;20079;-52
2021/01/05 03:35:22;;;;;;;15.25;6.93;;;6.80;85.40;;;;;;5013588;28;20033;-52
2021/01/05 03:37:47;;;;;;;15.70;6.93;;;6.70;85.40;;;;;;5013220;28;20061;-52
2021/01/05 03:40:13;;;;;;;15.82;6.65;;;6.70;85.40;;;;;;5013496;28;20038;-52
2021/01/05 03:42:39;;;;;;;16.00;7.22;;;6.80;85.40;;;;;;5013122;28;20034;-52
2021/01/05 03:45:07;;;;;;;16.90;7.45;;;6.80;85.40;;;;;;5013428;28;20329;-52
2021/01/05 03:47:33;;;;;;;18.15;7.72;;;6.80;85.40;;;;;;5022787;28;20061;-52
2021/01/05 03:49:58;;;;;;;23.13;8.50;;;6.80;85.40;;;;;;5033259;28;20079;-52
2021/01/05 03:52:24;;;;;;;15.60;7.18;;;6.80;85.40;;;;;;5032167;28;20025;-52
2021/01/05 03:54:51;;;;;;;16.25;6.95;;;6.80;85.40;;;;;;5033409;28;20049;-52
2021/01/05 03:57:17;;;;;;;19.35;7.13;;;6.70;85.30;;;;;;5023208;28;20443;-52
2021/01/05 03:59:43;;;;;;;16.80;7.13;;;6.70;85.40;;;;;;5013224;28;20038;-52
2021/01/05 04:02:09;;;;;;;15.55;7.70;;;6.80;85.40;;;;;;5013040;28;20101;-52
2021/01/05 04:04:35;;;;;;;16.23;7.30;;;6.80;85.50;;;;;;5028223;28;20378;-52
2021/01/05 04:07:00;;;;;;;17.30;7.15;;;6.70;85.40;;;;;;5032444;28;20386;-52
2021/01/05 04:09:26;;;;;;;22.42;9.05;;;6.80;85.50;;;;;;5032920;28;20022;-52
2021/01/05 04:11:52;;;;;;;19.25;8.35;;;6.80;85.50;;;;;;5012879;28;20057;-52
2021/01/05 04:14:18;;;;;;;14.98;6.82;;;6.80;85.50;;;;;;5013037;28;20033;-52
2021/01/05 04:16:46;;;;;;;17.30;7.53;;;6.80;85.50;;;;;;5017031;28;20140;-52
2021/01/05 04:19:13;;;;;;;15.40;7.70;;;6.80;85.50;;;;;;5017311;28;20580;-52
2021/01/05 04:21:38;;;;;;;18.63;7.80;;;6.80;85.50;;;;;;5016732;28;20045;-52
2021/01/05 04:24:04;;;;;;;17.80;8.13;;;6.80;85.40;;;;;;5016827;28;20038;-52
2021/01/05 04:26:32;;;;;;;15.82;7.07;;;6.80;85.40;;;;;;5017015;28;20024;-52
2021/01/05 04:28:57;;;;;;;23.23;8.52;;;6.80;85.40;;;;;;5016784;28;20030;-52
2021/01/05 04:31:23;;;;;;;16.65;6.97;;;6.80;85.40;;;;;;5021865;28;20439;-52
2021/01/05 04:33:49;;;;;;;17.33;8.43;;;6.80;85.50;;;;;;5036510;28;20418;-52
2021/01/05 04:36:14;;;;;;;21.73;8.63;;;6.80;85.40;;;;;;5035875;28;20034;-52
2021/01/05 04:38:40;;;;;;;21.52;8.82;;;6.80;85.50;;;;;;5036207;28;20521;-52
2021/01/05 04:41:12;;;;;;;20.80;6.78;;;6.80;85.40;;;;;;5036416;28;20121;-52
2021/01/05 04:43:51;;;;;;;20.10;8.68;;;6.80;85.40;;;;;;5036135;28;20037;-52
2021/01/05 04:46:19;;;;;;;20.85;7.53;;;6.80;85.40;;;;;;5023578;28;20072;-52
2021/01/05 04:49:01;;;;;;;18.02;8.00;;;6.80;85.50;;;;;;5016663;28;20034;-52
2021/01/05 04:51:27;;;;;;;23.55;8.20;;;6.80;85.40;;;;;;5015794;28;20121;-52
2021/01/05 04:53:59;;;;;;;18.60;9.45;;;6.80;85.50;;;;;;5016411;28;20178;-52
2021/01/05 04:56:55;;;;;;;20.30;7.88;;;6.80;85.50;;;;;;5016317;28;20072;-52
2021/01/05 04:59:27;;;;;;;20.00;8.05;;;6.80;85.40;;;;;;5020378;28;20092;-52
2021/01/05 05:01:52;;;;;;;21.08;8.15;;;6.80;85.40;;;;;;5035388;28;20530;-52
2021/01/05 05:04:44;;;;;;;23.35;9.30;;;6.80;85.30;;;;;;5035444;28;20045;-53
2021/01/05 05:07:44;;;;;;;19.23;8.65;;;6.80;85.20;;;;;;5037562;28;20091;-52
2021/01/05 05:10:16;;;;;;;24.05;9.27;;;6.80;85.20;;;;;;5032342;28;20022;-52
2021/01/05 05:13:01;;;;;;;21.98;8.45;;;6.80;85.20;;;;;;5028703;28;20034;-52
2021/01/05 05:15:29;;;;;;;20.90;9.60;;;6.80;85.20;;;;;;5015990;28;20033;-52
2021/01/05 05:18:18;;;;;;;25.05;10.15;;;6.80;85.20;;;;;;5015838;28;20032;-52
2021/01/05 05:20:47;;;;;;;22.88;9.27;;;6.80;85.20;;;;;;5015889;28;20029;-53
2021/01/05 05:23:42;;;;;;;21.10;9.25;;;6.80;85.20;;;;;;5034894;28;20080;-52
2021/01/05 05:26:22;;;;;;;28.30;9.13;;;6.80;85.20;;;;;;5026259;28;20057;-53
2021/01/05 05:29:01;;;;;;;22.90;9.00;;;6.90;85.20;;;;;;5031375;28;20029;-53
2021/01/05 05:31:30;;;;;;;24.60;8.88;;;6.90;85.20;;;;;;5026269;28;20028;-52
2021/01/05 05:34:16;;;;;;;24.80;10.55;;;6.90;85.10;;;;;;5019482;28;20029;-52
2021/01/05 05:36:56;;;;;;;19.83;8.45;;;6.90;85.10;;;;;;5035135;28;20018;-53
2021/01/05 05:39:34;;;;;;;22.10;8.85;;;6.90;85.20;;;;;;5035112;28;20029;-53
2021/01/05 05:42:23;;;;;;;23.60;9.27;;;6.90;85.10;;;;;;5034782;28;20481;-52
2021/01/05 05:45:01;;;;;;;26.17;10.45;;;6.90;85.20;;;;;;5035234;28;20029;-52
2021/01/05 05:47:39;;;;;;;21.45;9.40;;;6.90;85.20;;;;;;5034910;28;20029;-53
2021/01/05 05:50:23;;;;;;;25.98;9.57;;;6.90;85.20;;;;;;5035162;28;20036;-52
2021/01/05 05:52:55;;;;;;;24.90;10.25;;;6.90;85.10;;;;;;5034827;28;20109;-52
2021/01/05 05:55:48;;;;;;;27.33;9.20;;;6.90;85.10;;;;;;5034939;28;20071;-52
2021/01/05 05:58:18;;;;;;;28.38;9.75;;;6.90;85.10;;;;;;5035017;28;20513;-52
2021/01/05 06:00:50;;;;;;;27.80;10.32;;;6.90;85.10;;;;;;5034791;28;20029;-52
2021/01/05 06:03:18;;;;;;;28.30;9.40;;;6.90;85.10;;;;;;5034329;28;20041;-53
2021/01/05 06:05:44;;;;;;;28.23;10.20;;;6.90;85.10;;;;;;5035057;28;20025;-52
2021/01/05 06:08:12;;;;;;;20.20;8.85;;;6.90;85.20;;;;;;5034622;28;20029;-52
2021/01/05 06:10:38;;;;;;;27.17;10.00;;;6.90;85.10;;;;;;5025059;28;20038;-53
2021/01/05 06:13:04;;;;;;;19.65;8.80;;;6.90;85.10;;;;;;5014565;28;20022;-53
2021/01/05 06:15:33;;;;;;;25.10;9.18;;;6.90;85.00;;;;;;5014638;28;20032;-52
2021/01/05 06:18:07;;;;;;;18.17;7.03;;;6.90;85.10;;;;;;5014822;28;20025;-53
2021/01/05 06:20:33;;;;;;;25.10;9.30;;;6.90;85.20;;;;;;5014591;28;20029;-53
2021/01/05 06:22:59;;;;;;;22.35;7.65;;;6.90;85.10;;;;;;5014105;28;20037;-52
2021/01/05 06:25:25;;;;;;;28.65;10.18;;;6.80;85.00;;;;;;5014981;28;20025;-53
2021/01/05 06:27:51;;;;;;;26.00;9.63;;;6.90;85.10;;;;;;5014574;28;20416;-52
2021/01/05 06:30:17;;;;;;;28.88;10.55;;;6.90;85.00;;;;;;5014460;28;20054;-53
2021/01/05 06:32:44;;;;;;;24.65;9.57;;;6.90;85.00;;;;;;5014174;28;20053;-52
2021/01/05 06:35:11;;;;;;;22.77;8.82;;;6.90;85.10;;;;;;5014292;28;20507;-52
2021/01/05 06:37:36;;;;;;;25.17;8.88;;;6.90;85.00;;;;;;5013667;28;20382;-52
2021/01/05 06:40:05;;;;;;;30.65;10.18;;;6.90;85.00;;;;;;5014440;28;20030;-52
2021/01/05 06:42:31;;;;;;;20.73;8.23;;;6.90;85.10;;;;;;5013878;28;20046;-52
2021/01/05 06:44:56;;;;;;;26.67;9.80;;;6.90;85.20;;;;;;5014156;28;20367;-52
2021/01/05 06:47:22;;;;;;;20.27;9.40;;;6.90;85.10;;;;;;5021398;28;20040;-52
2021/01/05 06:49:48;;;;;;;22.45;9.65;;;6.90;85.10;;;;;;5030441;28;20030;-52
2021/01/05 06:52:13;;;;;;;24.45;9.30;;;6.90;85.10;;;;;;5033217;28;20431;-52
2021/01/05 06:54:39;;;;;;;22.30;7.95;;;6.90;85.10;;;;;;5033687;28;20104;-52
2021/01/05 06:57:05;;;;;;;17.05;6.93;;;6.90;85.10;;;;;;5033729;28;20042;-52
2021/01/05 06:59:30;;;;;;;21.70;7.68;;;6.90;85.10;;;;;;5033746;28;20030;-52
2021/01/05 07:02:03;;;;;;;17.23;6.72;;;6.90;85.20;;;;;;5033464;28;20515;-52
2021/01/05 07:04:29;;;;;;;15.88;6.82;;;6.90;85.10;;;;;;5033473;28;20061;-52
2021/01/05 07:06:57;;;;;;;26.02;7.50;;;6.90;85.10;;;;;;5033846;28;20029;-52
2021/01/05 07:09:23;;;;;;;18.67;6.53;;;6.90;85.10;;;;;;5033599;28;20026;-53
2021/01/05 07:11:49;;;;;;;16.90;6.90;;;6.90;85.10;;;;;;5013789;28;20056;-52
2021/01/05 07:14:18;;;;;;;17.02;7.20;;;6.90;85.10;;;;;;5013804;28;20495;-53
2021/01/05 07:16:43;;;;;;;18.02;7.25;;;6.90;85.10;;;;;;5014087;28;20033;-52
2021/01/05 07:19:09;;;;;;;16.35;6.60;;;6.90;85.00;;;;;;5013618;28;20075;-52
2021/01/05 07:21:35;;;;;;;14.77;6.28;;;6.90;85.10;;;;;;5013274;28;20021;-52
2021/01/05 07:24:00;;;;;;;20.63;6.18;;;6.90;85.00;;;;;;5013622;28;20487;-52
2021/01/05 07:26:26;;;;;;;13.60;5.95;;;6.90;85.00;;;;;;5013697;28;20113;-53
2021/01/05 07:28:52;;;;;;;14.88;6.65;;;6.90;85.00;;;;;;5013710;28;20029;-52
2021/01/05 07:31:17;;;;;;;16.92;6.43;;;6.90;85.00;;;;;;5013120;28;20022;-52
2021/01/05 07:33:43;;;;;;;16.23;7.47;;;6.90;85.00;;;;;;5013413;28;20154;-52
2021/01/05 07:36:30;;;;;;;15.98;6.30;;;6.90;85.00;;;;;;5014418;28;20025;-52
2021/01/05 07:38:56;;;;;;;14.10;5.95;;;6.90;85.00;;;;;;5028143;28;20462;-52
2021/01/05 07:41:22;;;;;;;13.15;5.63;;;6.90;84.90;;;;;;5023196;28;20018;-52
2021/01/05 07:43:48;;;;;;;17.23;7.25;;;6.90;85.00;;;;;;5020727;28;20035;-52
2021/01/05 07:46:14;;;;;;;17.05;8.23;;;6.90;84.90;;;;;;5015624;28;20018;-52
2021/01/05 07:48:40;;;;;;;16.52;6.72;;;6.90;84.90;;;;;;5013366;28;20026;-52
2021/01/05 07:51:07;;;;;;;19.85;6.60;;;6.90;84.90;;;;;;5015817;28;20022;-52
2021/01/05 07:53:32;;;;;;;23.33;8.10;;;6.90;84.90;;;;;;5022477;28;20041;-52
2021/01/05 07:55:58;;;;;;;15.32;5.53;;;6.90;84.90;;;;;;5027435;28;20030;-52
2021/01/05 07:58:24;;;;;;;12.57;5.03;;;6.90;84.90;;;;;;5026801;28;20060;-52
2021/01/05 08:00:50;;;;;;;11.23;5.65;;;6.90;84.90;;;;;;5023543;28;20026;-52
2021/01/05 08:03:15;;;;;;;13.43;5.57;;;6.90;84.90;;;;;;5025484;28;20065;-53
2021/01/05 08:05:41;;;;;;;19.88;6.97;;;7.00;84.90;;;;;;5026824;28;20045;-52
2021/01/05 08:08:07;;;;;;;16.52;6.03;;;7.00;84.80;;;;;;5026693;28;20030;-52
2021/01/05 08:10:35;;;;;;;15.70;7.22;;;6.90;84.80;;;;;;5025252;28;20462;-53
2021/01/05 08:13:03;;;;;;;16.08;6.25;;;6.90;85.50;;;;;;5026925;28;20030;-52
2021/01/05 08:15:29;;;;;;;16.73;7.22;;;7.00;84.90;;;;;;5025504;28;20598;-52
2021/01/05 08:17:55;;;;;;;16.80;6.07;;;7.00;84.80;;;;;;5027402;28;20057;-52
2021/01/05 08:20:23;;;;;;;11.20;5.35;;;7.00;84.80;;;;;;5025714;28;20462;-52
2021/01/05 08:22:50;;;;;;;17.45;6.72;;;7.00;84.80;;;;;;5025351;28;20048;-52
2021/01/05 08:25:17;;;;;;;14.55;5.75;;;6.90;84.70;;;;;;5022761;28;20041;-52
2021/01/05 08:27:48;;;;;;;17.95;6.82;;;7.00;84.80;;;;;;5023202;28;20053;-52
2021/01/05 08:30:15;;;;;;;15.52;6.55;;;7.00;84.70;;;;;;5025895;28;20033;-52
2021/01/05 08:32:41;;;;;;;14.50;6.45;;;7.00;84.80;;;;;;5026934;28;20030;-52
2021/01/05 08:35:08;;;;;;;13.35;6.53;;;7.00;84.70;;;;;;5025720;28;20384;-53
2021/01/05 08:37:37;;;;;;;14.30;6.90;;;7.00;84.80;;;;;;5022005;28;20037;-52
2021/01/05 08:40:05;;;;;;;14.27;6.45;;;7.00;84.80;;;;;;5030746;28;20025;-52
2021/01/05 08:42:30;;;;;;;14.57;6.90;;;7.00;84.80;;;;;;5028977;28;20037;-53
2021/01/05 08:44:56;;;;;;;16.05;5.90;;;7.00;84.70;;;;;;5018988;28;20029;-53
2021/01/05 08:47:21;;;;;;;15.23;6.15;;;7.00;84.80;;;;;;5016294;28;20030;-52
2021/01/05 08:49:47;;;;;;;13.18;5.75;;;7.00;84.80;;;;;;5016540;28;20030;-53
2021/01/05 08:52:12;;;;;;;15.15;5.97;;;7.00;84.80;;;;;;5015928;28;20030;-52
2021/01/05 08:54:38;;;;;;;12.88;6.15;;;7.00;84.80;;;;;;5016216;28;20030;-53
2021/01/05 08:57:04;;;;;;;13.75;6.85;;;7.00;84.70;;;;;;5015807;28;20034;-52
2021/01/05 08:59:30;;;;;;;17.38;6.95;;;7.00;84.70;;;;;;5016361;28;20048;-52
2021/01/05 09:01:55;;;;;;;18.17;7.32;;;7.00;84.70;;;;;;5015443;28;20079;-52
2021/01/05 09:04:21;;;;;;;14.70;7.07;;;7.00;84.70;;;;;;5015973;28;20042;-52
2021/01/05 09:06:55;;;;;;;18.40;7.32;;;7.00;84.70;;;;;;5016066;28;20022;-52
2021/01/05 09:09:20;;;;;;;13.73;5.72;;;7.00;84.60;;;;;;5015891;28;20018;-52
2021/01/05 09:11:52;;;;;;;20.08;7.75;;;7.00;84.70;;;;;;5034462;28;20108;-52
2021/01/05 09:14:18;;;;;;;20.33;6.97;;;7.00;84.60;;;;;;5028783;28;20538;-52
2021/01/05 09:16:43;;;;;;;17.40;6.63;;;7.00;84.70;;;;;;5015872;28;20124;-52
2021/01/05 09:19:09;;;;;;;14.10;6.30;;;7.00;85.40;;;;;;5015991;28;20089;-52
2021/01/05 09:21:35;;;;;;;12.02;5.63;;;7.00;84.60;;;;;;5015217;28;20095;-52
2021/01/05 09:24:00;;;;;;;21.98;5.97;;;7.00;84.70;;;;;;5015996;28;20037;-52
2021/01/05 09:26:35;;;;;;;18.45;6.47;;;7.00;84.60;;;;;;5015784;28;20413;-52
2021/01/05 09:29:03;;;;;;;8.93;4.53;;;7.00;84.60;;;;;;5015555;28;20530;-52
2021/01/05 09:31:28;;;;;;;12.55;5.13;;;7.00;84.70;;;;;;5015152;28;20443;-52
2021/01/05 09:33:54;;;;;;;16.15;5.80;;;7.00;84.60;;;;;;5015614;28;20053;-52
2021/01/05 09:36:32;;;;;;;12.82;4.90;;;7.00;84.60;;;;;;5015508;28;20026;-52
2021/01/05 09:38:58;;;;;;;10.10;5.47;;;7.00;84.60;;;;;;5015405;28;20045;-53
2021/01/05 09:41:36;;;;;;;12.30;5.68;;;7.00;85.30;;;;;;5014924;28;20033;-52
2021/01/05 09:44:02;;;;;;;13.23;6.05;;;7.00;84.60;;;;;;5021617;28;20053;-52
2021/01/05 09:46:29;;;;;;;10.35;3.40;;;7.00;84.60;;;;;;5026200;28;20029;-52
2021/01/05 09:48:54;;;;;;;16.60;5.88;;;7.00;84.60;;;;;;5022575;28;20038;-52
2021/01/05 09:51:26;;;;;;;15.18;5.38;;;7.10;84.60;;;;;;5025877;28;20103;-52
2021/01/05 09:53:52;;;;;;;10.75;5.35;;;7.00;84.50;;;;;;5019941;28;20072;-52
2021/01/05 09:56:17;;;;;;;13.52;5.90;;;7.10;84.60;;;;;;5017865;28;20029;-52
2021/01/05 09:58:44;;;;;;;14.52;5.85;;;7.10;84.50;;;;;;5023340;28;20087;-52
2021/01/05 10:01:10;;;;;;;20.50;5.57;;;7.00;84.50;;;;;;5020745;28;20026;-53
2021/01/05 10:03:35;;;;;;;12.80;6.13;;;7.10;84.60;;;;;;5024047;28;20055;-52
2021/01/05 10:06:01;;;;;;;19.40;6.95;;;7.00;84.50;;;;;;5024822;28;20022;-52
2021/01/05 10:08:27;;;;;;;22.05;8.30;;;7.10;84.60;;;;;;5028318;28;20033;-52
2021/01/05 10:10:53;;;;;;;21.98;8.35;;;7.10;84.60;;;;;;5028031;28;20018;-52
2021/01/05 10:13:19;;;;;;;24.60;9.55;;;7.10;84.50;;;;;;5022221;28;20034;-53
2021/01/05 10:15:44;;;;;;;22.52;7.55;;;7.10;84.60;;;;;;5017229;28;20451;-52
2021/01/05 10:18:10;;;;;;;22.27;7.70;;;7.10;84.60;;;;;;5014279;28;20022;-52
2021/01/05 10:20:36;;;;;;;24.05;9.23;;;7.10;84.50;;;;;;5014295;28;20022;-52
2021/01/05 10:23:01;;;;;;;20.08;7.20;;;7.10;84.50;;;;;;5014153;28;20130;-52
2021/01/05 10:25:27;;;;;;;20.90;8.20;;;7.10;84.50;;;;;;5014481;28;20355;-52
2021/01/05 10:27:53;;;;;;;27.30;9.15;;;7.10;84.50;;;;;;5014436;28;20478;-52
2021/01/05 10:30:20;;;;;;;17.80;7.25;;;7.10;84.50;;;;;;5014523;28;20058;-52
2021/01/05 10:32:45;;;;;;;17.88;6.47;;;7.10;84.50;;;;;;5013712;28;20029;-52
2021/01/05 10:35:17;;;;;;;21.73;7.75;;;7.10;84.60;;;;;;5014410;28;20152;-52
2021/01/05 10:37:46;;;;;;;14.80;6.68;;;7.10;84.60;;;;;;5014200;28;20121;-52
2021/01/05 10:40:13;;;;;;;17.77;7.10;;;7.10;84.60;;;;;;5014403;28;20054;-53
2021/01/05 10:42:43;;;;;;;16.95;6.68;;;7.10;84.60;;;;;;5013754;28;20128;-52
2021/01/05 10:45:12;;;;;;;14.65;5.97;;;7.10;84.60;;;;;;5014171;28;20041;-52
2021/01/05 10:47:39;;;;;;;17.38;7.30;;;7.10;84.60;;;;;;5018567;28;20456;-53
2021/01/05 10:50:07;;;;;;;16.17;7.10;;;7.10;84.50;;;;;;5030230;28;20030;-53
2021/01/05 10:52:33;;;;;;;19.42;7.38;;;7.10;84.50;;;;;;5033205;28;20029;-52
2021/01/05 10:55:00;;;;;;;18.80;8.32;;;7.10;84.50;;;;;;5033836;28;20036;-52
2021/01/05 10:57:26;;;;;;;22.75;7.88;;;7.10;84.50;;;;;;5032052;28;20033;-52
2021/01/05 10:59:52;;;;;;;15.45;7.30;;;7.10;84.50;;;;;;5033731;28;20048;-53
2021/01/05 11:02:17;;;;;;;17.08;7.78;;;7.10;84.60;;;;;;5032799;28;20029;-52
2021/01/05 11:04:44;;;;;;;27.50;7.72;;;7.10;84.50;;;;;;5030107;28;20029;-53
2021/01/05 11:07:14;;;;;;;17.60;7.15;;;7.10;84.50;;;;;;5025656;28;20038;-52
2021/01/05 11:09:40;;;;;;;;;;;7.10;84.50;;;;;;5027282;28;20037;-52
2021/01/05 11:12:11;;;;;;;12.13;5.70;;;7.20;84.60;;;;;;5021193;28;20301;-52
2021/01/05 11:14:41;;;;;;;13.38;6.40;;;7.10;84.60;;;;;;5022911;28;20022;-52
2021/01/05 11:17:08;;;;;;;20.85;7.93;;;7.20;84.60;;;;;;5031192;28;20033;-52
2021/01/05 11:19:35;;;;;;;28.70;9.23;;;7.20;84.60;;;;;;5033275;28;20029;-52
2021/01/05 11:22:04;;;;;;;23.48;7.80;;;7.20;84.60;;;;;;5029678;28;20029;-53
2021/01/05 11:24:30;;;;;;;18.33;6.88;;;7.20;84.60;;;;;;5022103;28;20026;-52
2021/01/05 11:26:57;;;;;;;22.08;8.45;;;7.20;84.60;;;;;;5020922;28;20422;-52
2021/01/05 11:29:24;;;;;;;25.88;10.43;;;7.20;84.60;;;;;;5023617;28;20017;-52
2021/01/05 11:32:01;;;;;;;17.55;6.45;;;7.20;84.60;;;;;;5022306;28;20021;-52
2021/01/05 11:34:28;;;;;;;16.80;7.32;;;7.20;84.60;;;;;;5024035;28;20056;-52
2021/01/05 11:36:58;;;;;;;19.35;7.43;;;7.20;84.60;;;;;;5023340;28;20367;-53
2021/01/05 11:39:24;;;;;;;19.47;6.97;;;7.20;84.60;;;;;;5021761;28;20018;-52
2021/01/05 11:41:49;;;;;;;14.98;6.07;;;7.20;84.50;;;;;;5023091;28;20639;-53
2021/01/05 11:44:16;;;;;;;15.88;5.95;;;7.20;84.60;;;;;;5023281;28;20046;-52
2021/01/05 11:46:42;;;;;;;14.63;5.43;;;7.20;84.60;;;;;;5024127;28;20029;-52
2021/01/05 11:49:08;;;;;;;14.98;5.43;;;7.20;84.60;;;;;;5024078;28;20079;-52
2021/01/05 11:51:37;;;;;;;15.98;5.45;;;7.20;84.60;;;;;;5023379;28;20014;-53
2021/01/05 11:54:03;;;;;;;13.00;5.75;;;7.20;84.50;;;;;;5018413;28;20032;-52
2021/01/05 11:56:32;;;;;;;19.92;6.55;;;7.20;84.50;;;;;;5015162;28;20108;-52
2021/01/05 11:58:58;;;;;;;16.75;6.85;;;7.20;84.50;;;;;;5020765;28;20375;-52
2021/01/05 12:01:25;;;;;;;18.45;7.45;;;7.20;84.50;;;;;;5023858;28;20474;-52
2021/01/05 12:03:51;;;;;;;12.25;5.35;;;7.20;84.50;;;;;;5014835;28;20618;-52
2021/01/05 12:06:18;;;;;;;13.45;5.55;;;7.20;84.50;;;;;;5023527;28;20021;-52
2021/01/05 12:08:43;;;;;;;20.23;7.03;;;7.20;85.20;;;;;;5015737;28;20022;-52
2021/01/05 12:11:17;;;;;;;16.23;5.82;;;7.20;84.50;;;;;;5020655;28;20028;-52
2021/01/05 12:13:43;;;;;;;12.80;5.82;;;7.20;84.50;;;;;;5023109;28;20018;-52
2021/01/05 12:16:09;;;;;;;12.40;5.40;;;7.20;84.50;;;;;;5021372;28;20497;-53
2021/01/05 12:18:34;;;;;;;21.08;6.85;;;7.20;84.40;;;;;;5022593;28;20029;-52
2021/01/05 12:21:00;;;;;;;12.60;4.90;;;7.20;85.20;;;;;;5023302;28;20486;-52
2021/01/05 12:23:26;;;;;;;14.45;6.35;;;7.20;84.50;;;;;;5021169;28;20033;-52
2021/01/05 12:25:52;;;;;;;13.00;6.28;;;7.20;84.50;;;;;;5023409;28;20432;-52
2021/01/05 12:28:18;;;;;;;22.13;7.45;;;7.20;84.40;;;;;;5021781;28;20412;-52
2021/01/05 12:30:43;;;;;;;16.00;7.05;;;7.20;84.40;;;;;;5022315;28;20018;-52
2021/01/05 12:33:09;;;;;;;13.63;6.07;;;7.20;84.40;;;;;;5022957;28;20017;-52
2021/01/05 12:35:40;;;;;;;13.98;5.95;;;7.20;84.40;;;;;;5024402;28;20017;-52
2021/01/05 12:38:05;;;;;;;;;;;7.20;84.40;;;;;;5036252;28;20367;-53
2021/01/05 12:40:31;;;;;;;11.88;4.88;;;7.20;84.40;;;;;;5036066;28;19905;-53
2021/01/05 12:42:56;;;;;;;24.50;7.00;;;7.20;84.40;;;;;;5032579;28;20033;-52
2021/01/05 12:45:22;;;;;;;13.65;5.35;;;7.20;84.40;;;;;;5024648;28;20413;-53
2021/01/05 12:47:50;;;;;;;17.48;5.93;;;7.20;84.40;;;;;;5016362;28;20029;-52
2021/01/05 12:50:17;;;;;;;13.88;6.18;;;7.20;84.40;;;;;;5016671;28;20033;-52
2021/01/05 12:52:45;;;;;;;17.00;6.43;;;7.20;84.40;;;;;;5025060;28;20017;-52
2021/01/05 12:55:11;;;;;;;12.77;5.43;;;7.20;84.40;;;;;;5018991;28;20092;-52
2021/01/05 12:57:37;;;;;;;20.15;6.22;;;7.20;84.40;;;;;;5027766;28;20018;-52
2021/01/05 13:00:04;;;;;;;19.13;6.93;;;7.20;84.40;;;;;;5035764;28;20112;-52